Time;durP1;ratioP1;P1;durP2;ratioP2;P2;SDS_P1;SDS_P2;PMS_P1;PMS_P2;Temp;Humidity;BMP_temperature;BMP_pressure;BME280_temperature;BME280_humidity;BME280_pressure;Samples;Min_cycle;Max_cycle;Signal;HPM_P1;HPM_P2
2021/03/23 05:01:54;;;;;;;4.35;3.30;;;5.40;99.90;;;;;;5251470;23;20246;-71
2021/03/23 05:04:20;;;;;;;4.03;2.90;;;5.40;99.90;;;;;;4915851;29;20615;-71
2021/03/23 05:06:47;;;;;;;3.35;3.05;;;5.40;99.90;;;;;;4916476;29;20215;-72
2021/03/23 05:09:14;;;;;;;5.13;3.20;;;5.40;99.90;;;;;;4916734;29;20222;-71
2021/03/23 05:11:40;;;;;;;10.15;7.30;;;5.40;99.90;;;;;;4916890;29;20310;-73
2021/03/23 05:14:09;;;;;;;13.95;7.45;;;5.40;99.90;;;;;;4915979;29;20206;-71
2021/03/23 05:16:36;;;;;;;6.85;4.20;;;5.40;99.90;;;;;;4916733;29;20210;-72
2021/03/23 05:19:04;;;;;;;8.70;4.25;;;5.40;99.90;;;;;;4916374;29;20214;-72
2021/03/23 05:21:30;;;;;;;4.55;4.15;;;5.40;99.90;;;;;;4916611;29;20231;-72
2021/03/23 05:23:58;;;;;;;6.15;4.32;;;5.40;99.90;;;;;;4916415;29;20231;-71
2021/03/23 05:26:25;;;;;;;3.50;3.17;;;5.40;99.90;;;;;;4916954;29;20223;-71
2021/03/23 05:28:51;;;;;;;3.67;3.30;;;5.40;99.90;;;;;;4916065;29;20229;-72
2021/03/23 05:31:18;;;;;;;5.13;3.53;;;5.40;99.90;;;;;;4915525;29;20282;-72
2021/03/23 05:33:44;;;;;;;5.18;4.68;;;5.50;99.90;;;;;;4915431;29;20207;-72
2021/03/23 05:36:12;;;;;;;4.18;3.83;;;5.50;99.90;;;;;;4915849;29;20210;-72
2021/03/23 05:38:39;;;;;;;17.95;10.25;;;5.50;99.90;;;;;;4916106;29;20224;-72
2021/03/23 05:41:08;;;;;;;5.70;3.40;;;5.50;99.90;;;;;;4916421;29;20234;-72
2021/03/23 05:43:55;;;;;;;5.00;4.57;;;5.50;99.90;;;;;;4915120;29;20226;-70
2021/03/23 05:46:28;;;;;;;6.10;4.15;;;5.50;99.90;;;;;;4915796;29;20210;-71
2021/03/23 05:49:01;;;;;;;5.05;3.78;;;5.50;99.90;;;;;;4916975;29;20229;-73
2021/03/23 05:51:34;;;;;;;4.40;4.00;;;5.50;99.90;;;;;;4922565;29;20242;-73
2021/03/23 05:54:06;;;;;;;4.70;3.45;;;5.50;99.90;;;;;;4921567;29;20270;-74
2021/03/23 05:56:37;;;;;;;4.80;3.92;;;5.50;99.90;;;;;;4921688;29;20210;-72
2021/03/23 05:59:13;;;;;;;5.00;4.50;;;5.50;99.90;;;;;;4922129;29;20282;-73
2021/03/23 06:01:47;;;;;;;7.32;4.35;;;5.50;99.90;;;;;;4921935;29;20253;-73
2021/03/23 06:04:21;;;;;;;4.45;3.92;;;5.50;99.90;;;;;;4921468;29;20234;-74
2021/03/23 06:06:55;;;;;;;6.35;4.25;;;5.50;99.90;;;;;;4922111;29;20233;-73
2021/03/23 06:09:28;;;;;;;4.85;3.72;;;5.60;99.90;;;;;;4922498;29;20237;-72
2021/03/23 06:12:04;;;;;;;4.18;3.78;;;5.60;99.90;;;;;;4922050;29;20262;-73
2021/03/23 06:14:37;;;;;;;7.07;4.22;;;5.60;99.90;;;;;;4921924;29;20221;-74
2021/03/23 06:17:12;;;;;;;9.05;5.40;;;5.60;99.90;;;;;;4922269;29;20213;-73
2021/03/23 06:19:51;;;;;;;4.60;3.63;;;5.60;99.90;;;;;;4920860;29;20218;-72
2021/03/23 06:22:32;;;;;;;8.27;4.95;;;5.60;99.90;;;;;;4921559;29;20230;-73
2021/03/23 06:25:03;;;;;;;6.75;4.32;;;5.60;99.90;;;;;;4922457;29;20217;-73
2021/03/23 06:27:38;;;;;;;8.30;4.53;;;5.70;99.90;;;;;;4924190;29;20215;-73
2021/03/23 06:30:37;;;;;;;6.70;5.20;;;5.70;99.90;;;;;;4923726;29;20273;-72
2021/03/23 06:33:04;;;;;;;9.00;6.28;;;5.70;99.90;;;;;;4904516;29;20203;-74
2021/03/23 06:35:33;;;;;;;5.93;5.43;;;5.70;99.90;;;;;;4905368;29;20211;-73
2021/03/23 06:38:03;;;;;;;7.15;5.95;;;5.70;99.90;;;;;;4904722;29;20582;-72
2021/03/23 06:40:31;;;;;;;7.57;5.38;;;5.80;99.90;;;;;;4907417;29;20235;-73
2021/03/23 06:43:14;;;;;;;7.32;5.60;;;5.80;99.90;;;;;;4907175;29;20262;-72
2021/03/23 06:45:40;;;;;;;7.88;5.47;;;5.90;99.90;;;;;;4907585;29;20211;-73
2021/03/23 06:48:22;;;;;;;8.07;5.35;;;5.80;99.90;;;;;;4915075;29;20258;-73
2021/03/23 06:50:50;;;;;;;8.75;5.72;;;5.90;99.90;;;;;;4926212;29;20609;-73
2021/03/23 06:53:21;;;;;;;8.18;5.95;;;5.90;99.90;;;;;;4925374;29;20566;-73
2021/03/23 06:55:49;;;;;;;7.82;6.60;;;5.90;99.90;;;;;;4924985;29;20628;-73
2021/03/23 06:58:36;;;;;;;5.22;4.80;;;5.90;99.90;;;;;;4924843;29;20225;-73
2021/03/23 07:01:20;;;;;;;9.63;5.70;;;6.00;99.90;;;;;;4920714;29;20618;-72
2021/03/23 07:03:49;;;;;;;10.63;5.57;;;6.00;99.90;;;;;;4923111;29;20707;-72
2021/03/23 07:06:29;;;;;;;8.23;5.03;;;6.10;99.90;;;;;;4923304;29;20218;-72
2021/03/23 07:09:09;;;;;;;8.32;5.63;;;6.10;99.90;;;;;;4923998;29;20230;-73
2021/03/23 07:12:01;;;;;;;11.52;6.20;;;6.10;99.90;;;;;;4925166;29;20336;-73
2021/03/23 07:14:31;;;;;;;8.50;6.63;;;6.10;99.90;;;;;;4924790;29;20620;-72
2021/03/23 07:17:23;;;;;;;8.75;6.30;;;6.20;99.90;;;;;;4920737;29;20226;-69
2021/03/23 07:19:53;;;;;;;6.90;5.70;;;6.20;99.90;;;;;;4913983;29;20667;-70
2021/03/23 07:22:23;;;;;;;9.57;6.05;;;6.20;99.90;;;;;;4918109;29;20232;-70
2021/03/23 07:24:54;;;;;;;7.57;6.75;;;6.30;99.90;;;;;;4918371;29;20210;-70
2021/03/23 07:27:23;;;;;;;8.30;6.10;;;6.30;99.90;;;;;;4919803;29;20666;-70
2021/03/23 07:29:49;;;;;;;9.23;6.50;;;6.30;99.90;;;;;;4922488;29;20218;-72
2021/03/23 07:32:29;;;;;;;10.82;9.75;;;6.40;99.90;;;;;;4919683;29;20281;-72
2021/03/23 07:35:02;;;;;;;9.75;8.75;;;6.40;99.90;;;;;;4917902;29;20215;-71
2021/03/23 07:37:37;;;;;;;14.68;6.07;;;6.40;99.90;;;;;;4917971;29;20203;-72
2021/03/23 07:40:08;;;;;;;9.55;6.85;;;6.40;99.90;;;;;;4918139;29;20225;-71
2021/03/23 07:42:39;;;;;;;15.88;6.30;;;6.40;99.90;;;;;;4918482;29;20566;-71
2021/03/23 07:45:17;;;;;;;9.38;6.60;;;6.40;99.90;;;;;;4917861;29;20214;-71
2021/03/23 07:47:51;;;;;;;7.97;6.55;;;6.40;99.90;;;;;;4917750;29;20242;-71
2021/03/23 07:50:24;;;;;;;10.98;7.07;;;6.40;99.90;;;;;;4918138;29;20273;-71
2021/03/23 07:52:55;;;;;;;9.35;5.85;;;6.40;99.90;;;;;;4916651;29;20207;-73
2021/03/23 07:55:25;;;;;;;8.80;6.72;;;6.40;99.90;;;;;;4917394;29;20207;-72
2021/03/23 07:58:14;;;;;;;9.93;6.35;;;6.40;99.90;;;;;;4917846;29;20225;-71
2021/03/23 08:01:02;;;;;;;16.00;8.80;;;6.40;99.90;;;;;;4917785;29;20261;-71
2021/03/23 08:03:54;;;;;;;17.00;9.40;;;6.40;99.90;;;;;;4917368;29;20341;-71
2021/03/23 08:06:25;;;;;;;8.05;6.20;;;6.50;99.90;;;;;;4918178;29;20250;-71
2021/03/23 08:09:11;;;;;;;8.70;6.70;;;6.50;99.90;;;;;;4917721;29;20662;-71
2021/03/23 08:11:51;;;;;;;8.75;6.85;;;6.50;99.90;;;;;;4918076;29;20235;-71
2021/03/23 08:14:32;;;;;;;10.60;7.32;;;6.60;99.90;;;;;;4917194;29;20658;-71
2021/03/23 08:17:12;;;;;;;6.95;6.35;;;6.60;99.90;;;;;;4917821;29;20214;-71
2021/03/23 08:20:19;;;;;;;13.02;7.10;;;6.60;99.90;;;;;;4916712;29;20210;-71
2021/03/23 08:22:58;;;;;;;12.32;8.77;;;6.60;99.90;;;;;;4917407;29;20556;-71
2021/03/23 08:25:34;;;;;;;10.95;7.13;;;6.70;99.90;;;;;;4917923;29;20198;-70
2021/03/23 08:28:14;;;;;;;13.35;7.65;;;6.70;99.90;;;;;;4917152;29;20531;-71
2021/03/23 08:30:53;;;;;;;16.33;9.20;;;6.70;99.90;;;;;;4917332;29;20230;-70
2021/03/23 08:33:38;;;;;;;10.15;6.75;;;6.80;99.90;;;;;;4916348;29;20206;-70
2021/03/23 08:36:25;;;;;;;10.75;7.93;;;6.70;99.90;;;;;;4917134;29;20261;-70
2021/03/23 08:39:00;;;;;;;12.38;7.93;;;6.80;99.90;;;;;;4916923;29;20206;-70
2021/03/23 08:41:36;;;;;;;13.80;8.70;;;6.80;99.90;;;;;;4916981;29;20590;-70
2021/03/23 08:44:05;;;;;;;9.73;7.93;;;6.80;99.90;;;;;;4917761;29;20230;-71
2021/03/23 08:46:35;;;;;;;12.48;9.82;;;6.90;99.90;;;;;;4917698;29;20214;-71
2021/03/23 08:49:06;;;;;;;14.00;8.60;;;6.90;99.90;;;;;;4916723;29;20221;-71
2021/03/23 08:51:38;;;;;;;17.15;10.00;;;6.90;99.90;;;;;;4917131;29;20289;-71
2021/03/23 08:54:07;;;;;;;16.38;12.00;;;6.90;99.90;;;;;;4917109;29;20238;-71
2021/03/23 08:56:59;;;;;;;11.18;9.48;;;7.00;99.90;;;;;;4917365;29;20242;-71
2021/03/23 08:59:50;;;;;;;17.10;10.88;;;7.00;99.90;;;;;;4915970;29;20207;-71
2021/03/23 09:02:47;;;;;;;14.88;10.32;;;7.00;99.90;;;;;;4916257;29;20340;-72
2021/03/23 09:05:37;;;;;;;21.83;10.98;;;7.00;99.90;;;;;;4917056;29;20301;-71
2021/03/23 09:08:19;;;;;;;15.70;10.45;;;7.10;99.90;;;;;;4913285;29;20218;-71
2021/03/23 09:10:51;;;;;;;17.08;11.32;;;7.10;99.90;;;;;;4917061;29;20230;-71
2021/03/23 09:13:44;;;;;;;16.00;10.57;;;7.20;99.90;;;;;;4916315;29;20321;-72
2021/03/23 09:16:19;;;;;;;13.02;10.93;;;7.20;99.90;;;;;;4916245;29;20214;-71
2021/03/23 09:19:04;;;;;;;12.43;9.90;;;7.20;99.90;;;;;;4916346;29;20217;-71
2021/03/23 09:22:00;;;;;;;13.85;10.18;;;7.20;99.90;;;;;;4917299;29;20239;-71
2021/03/23 09:24:29;;;;;;;16.02;11.05;;;7.20;99.90;;;;;;4917061;29;20241;-73
2021/03/23 09:26:56;;;;;;;20.23;12.35;;;7.30;99.90;;;;;;4917426;29;20214;-73
2021/03/23 09:29:48;;;;;;;11.07;9.80;;;7.30;99.90;;;;;;4916543;29;20215;-73
2021/03/23 09:32:21;;;;;;;16.27;11.30;;;7.30;99.90;;;;;;4916633;29;20559;-73
2021/03/23 09:35:09;;;;;;;12.52;10.80;;;7.30;99.90;;;;;;4916307;29;20261;-73
2021/03/23 09:37:37;;;;;;;15.02;12.23;;;7.30;99.90;;;;;;4916649;29;20217;-72
2021/03/23 09:40:34;;;;;;;14.38;10.35;;;7.30;99.90;;;;;;4916635;29;20210;-72
2021/03/23 09:43:22;;;;;;;19.95;12.32;;;7.40;99.90;;;;;;4916109;29;20234;-71
2021/03/23 09:46:05;;;;;;;19.80;11.48;;;7.50;99.90;;;;;;4913662;29;20222;-71
2021/03/23 09:48:47;;;;;;;22.02;15.30;;;7.50;99.90;;;;;;4915471;29;20214;-71
2021/03/23 09:51:26;;;;;;;16.30;12.60;;;7.60;99.90;;;;;;4916237;29;20262;-71
2021/03/23 09:53:54;;;;;;;14.93;10.85;;;7.60;99.90;;;;;;4915641;29;20214;-71
2021/03/23 09:56:25;;;;;;;17.45;11.80;;;7.60;99.90;;;;;;4915919;29;20305;-71
2021/03/23 09:59:00;;;;;;;15.38;11.15;;;7.60;99.90;;;;;;4915528;29;20216;-71
2021/03/23 10:01:26;;;;;;;15.20;10.77;;;7.70;99.90;;;;;;4915679;29;20326;-71
2021/03/23 10:03:56;;;;;;;17.48;11.80;;;7.70;99.90;;;;;;4915189;29;20305;-70
2021/03/23 10:06:24;;;;;;;16.77;12.60;;;7.80;99.90;;;;;;4915536;29;20683;-70
2021/03/23 10:08:53;;;;;;;21.40;13.73;;;7.80;99.90;;;;;;4915533;29;20214;-70
2021/03/23 10:11:20;;;;;;;17.95;13.10;;;7.90;99.90;;;;;;4915363;29;20240;-70
2021/03/23 10:13:53;;;;;;;14.68;10.70;;;7.90;99.90;;;;;;4916145;29;20672;-73
2021/03/23 10:16:25;;;;;;;16.60;13.05;;;7.90;99.90;;;;;;4920869;29;20210;-73
2021/03/23 10:18:51;;;;;;;14.25;11.30;;;8.00;99.90;;;;;;4920517;29;20244;-73
2021/03/23 10:21:25;;;;;;;17.90;12.43;;;8.00;99.90;;;;;;4921228;29;20651;-73
2021/03/23 10:23:55;;;;;;;16.10;12.77;;;8.00;99.90;;;;;;4921425;29;20231;-73
2021/03/23 10:26:22;;;;;;;20.83;12.30;;;8.10;99.90;;;;;;4921247;29;20242;-73
2021/03/23 10:28:51;;;;;;;21.95;13.27;;;8.10;99.90;;;;;;4920995;29;20698;-73
2021/03/23 10:31:34;;;;;;;17.58;14.20;;;8.10;99.90;;;;;;4921646;29;20246;-74
2021/03/23 10:34:07;;;;;;;16.90;11.93;;;8.10;99.90;;;;;;4920982;29;20270;-74
2021/03/23 10:36:46;;;;;;;21.52;16.80;;;8.20;99.90;;;;;;4921019;29;20202;-73
2021/03/23 10:39:50;;;;;;;18.40;11.45;;;8.30;99.90;;;;;;4920579;29;20210;-73
2021/03/23 10:42:24;;;;;;;17.33;13.25;;;8.30;99.90;;;;;;4862275;29;20240;-73
2021/03/23 10:44:51;;;;;;;22.10;12.25;;;8.20;99.90;;;;;;4912789;29;20645;-73
2021/03/23 10:47:31;;;;;;;20.42;12.32;;;8.30;99.90;;;;;;4909550;29;20211;-73
2021/03/23 10:50:20;;;;;;;19.85;12.68;;;8.30;99.90;;;;;;4919338;29;20214;-72
2021/03/23 10:52:49;;;;;;;14.88;10.77;;;8.30;99.90;;;;;;4919585;29;20265;-73
2021/03/23 10:55:28;;;;;;;15.77;11.88;;;8.30;99.90;;;;;;4920793;29;20291;-73
2021/03/23 10:58:12;;;;;;;21.83;12.35;;;8.30;99.90;;;;;;4919693;29;20210;-73
2021/03/23 11:00:39;;;;;;;23.48;12.00;;;8.30;99.90;;;;;;4920558;29;20333;-73
2021/03/23 11:03:14;;;;;;;16.33;11.80;;;8.20;99.90;;;;;;4920482;29;20227;-73
2021/03/23 11:05:46;;;;;;;24.20;15.27;;;8.30;99.90;;;;;;4920403;29;20262;-73
2021/03/23 11:08:14;;;;;;;18.52;12.40;;;8.40;99.90;;;;;;4920688;29;20306;-73
2021/03/23 11:10:42;;;;;;;18.08;12.20;;;8.40;99.90;;;;;;4921496;29;20238;-74
2021/03/23 11:13:10;;;;;;;20.05;12.30;;;8.40;99.90;;;;;;4920168;29;20207;-73
2021/03/23 11:15:39;;;;;;;23.15;14.57;;;8.50;99.90;;;;;;4920922;29;20489;-73
2021/03/23 11:18:11;;;;;;;15.88;12.18;;;8.50;99.90;;;;;;4920648;29;20578;-75
2021/03/23 11:20:39;;;;;;;19.88;13.23;;;8.50;99.90;;;;;;4921029;29;20231;-74
2021/03/23 11:23:24;;;;;;;22.70;13.43;;;8.50;99.90;;;;;;4920607;29;20570;-73
2021/03/23 11:25:50;;;;;;;19.45;14.02;;;8.60;99.90;;;;;;4920691;29;20210;-74
2021/03/23 11:28:18;;;;;;;17.30;11.98;;;8.60;99.90;;;;;;4920719;29;20210;-73
2021/03/23 11:30:45;;;;;;;18.85;12.00;;;8.60;99.90;;;;;;4921433;29;20239;-73
2021/03/23 11:33:13;;;;;;;21.83;13.20;;;8.60;99.90;;;;;;4919910;29;20198;-73
2021/03/23 11:35:39;;;;;;;21.65;13.82;;;8.60;99.90;;;;;;4921069;29;20534;-73
2021/03/23 11:38:06;;;;;;;18.77;13.50;;;8.60;99.90;;;;;;4921425;29;20207;-73
2021/03/23 11:40:33;;;;;;;17.45;13.02;;;8.60;99.90;;;;;;4921642;29;20237;-74
2021/03/23 11:43:00;;;;;;;24.05;14.25;;;8.60;99.90;;;;;;4920956;29;20274;-74
2021/03/23 11:45:30;;;;;;;17.83;12.55;;;8.60;99.90;;;;;;4920818;29;20440;-74
2021/03/23 11:47:57;;;;;;;18.63;12.18;;;8.50;99.90;;;;;;4920210;29;20230;-74
2021/03/23 11:50:26;;;;;;;17.98;13.20;;;8.50;99.90;;;;;;4920747;29;20215;-74
2021/03/23 11:52:54;;;;;;;16.80;12.90;;;8.50;99.90;;;;;;4920031;29;20220;-74
2021/03/23 11:55:23;;;;;;;19.48;14.10;;;8.40;99.90;;;;;;4920826;29;20211;-74
2021/03/23 11:57:51;;;;;;;22.90;13.80;;;8.40;99.90;;;;;;4920768;29;20274;-74
2021/03/23 12:00:20;;;;;;;19.40;12.82;;;8.40;99.90;;;;;;4920828;29;20223;-73
2021/03/23 12:02:47;;;;;;;19.15;13.45;;;8.50;99.90;;;;;;4919928;29;20266;-74
2021/03/23 12:05:15;;;;;;;21.60;13.02;;;8.50;99.90;;;;;;4922054;29;20708;-73
2021/03/23 12:07:55;;;;;;;25.00;13.98;;;8.60;99.90;;;;;;4922920;29;20230;-74
2021/03/23 12:10:25;;;;;;;23.75;15.02;;;8.60;99.90;;;;;;4923459;29;20210;-73
2021/03/23 12:13:04;;;;;;;19.48;13.70;;;8.60;99.90;;;;;;4919681;29;20214;-71
2021/03/23 12:15:35;;;;;;;23.02;15.35;;;8.60;99.90;;;;;;4918429;29;20218;-72
2021/03/23 12:18:08;;;;;;;21.27;15.45;;;8.50;99.90;;;;;;4918147;29;20191;-72
2021/03/23 12:20:37;;;;;;;23.60;19.25;;;8.50;99.90;;;;;;4918460;29;20230;-72
2021/03/23 12:23:04;;;;;;;18.00;13.77;;;8.60;99.90;;;;;;4917788;29;20231;-72
2021/03/23 12:25:31;;;;;;;21.95;14.63;;;8.60;99.90;;;;;;4917856;29;20211;-72
2021/03/23 12:27:58;;;;;;;19.00;13.88;;;8.70;99.90;;;;;;4920579;29;20226;-74
2021/03/23 12:30:26;;;;;;;27.38;14.52;;;8.60;99.90;;;;;;4922609;29;20229;-74
2021/03/23 12:32:54;;;;;;;21.92;14.15;;;8.70;99.90;;;;;;4922846;29;20216;-74
2021/03/23 12:35:24;;;;;;;20.13;14.80;;;8.70;99.90;;;;;;4922592;29;20610;-74
2021/03/23 12:37:52;;;;;;;22.98;14.73;;;8.70;99.90;;;;;;4925234;29;20735;-72
2021/03/23 12:40:22;;;;;;;21.30;14.70;;;8.70;99.90;;;;;;4928108;29;20214;-74
2021/03/23 12:42:48;;;;;;;18.27;13.90;;;8.80;99.90;;;;;;4918682;29;20218;-72
2021/03/23 12:45:23;;;;;;;21.23;14.57;;;8.90;99.90;;;;;;4920538;29;20663;-73
2021/03/23 12:47:50;;;;;;;24.92;14.93;;;9.00;99.90;;;;;;4922660;29;20210;-73
2021/03/23 12:50:17;;;;;;;16.27;13.93;;;9.10;99.90;;;;;;4922727;29;20213;-73
2021/03/23 12:52:44;;;;;;;25.90;16.33;;;9.10;99.90;;;;;;4923462;29;20297;-73
2021/03/23 12:55:18;;;;;;;22.38;15.10;;;9.10;99.90;;;;;;4923477;29;20210;-73
2021/03/23 12:57:44;;;;;;;23.38;14.75;;;9.10;99.90;;;;;;4922225;29;20277;-73
2021/03/23 13:00:22;;;;;;;25.90;16.70;;;9.20;99.90;;;;;;4921974;29;20211;-73
2021/03/23 13:02:48;;;;;;;21.58;15.00;;;9.20;99.90;;;;;;4920207;29;20237;-74
2021/03/23 13:05:15;;;;;;;26.15;16.10;;;9.10;99.90;;;;;;4918699;29;20213;-74
2021/03/23 13:07:42;;;;;;;24.17;15.95;;;9.10;99.90;;;;;;4918017;29;20225;-74
2021/03/23 13:10:18;;;;;;;28.33;15.43;;;9.10;99.90;;;;;;4917934;29;20215;-73
2021/03/23 13:12:44;;;;;;;22.60;15.75;;;9.00;99.90;;;;;;4918381;29;20217;-73
2021/03/23 13:15:12;;;;;;;24.77;17.00;;;9.00;99.90;;;;;;4918378;29;20214;-73
2021/03/23 13:17:40;;;;;;;27.17;16.95;;;9.00;99.90;;;;;;4918258;29;20215;-74
2021/03/23 13:20:07;;;;;;;22.40;16.02;;;9.10;99.90;;;;;;4918221;29;20354;-73
2021/03/23 13:22:44;;;;;;;23.70;16.20;;;9.10;99.90;;;;;;4918162;29;20210;-73
2021/03/23 13:25:26;;;;;;;27.35;17.27;;;9.10;99.90;;;;;;4918381;29;20281;-74
2021/03/23 13:27:53;;;;;;;22.83;15.70;;;9.20;99.90;;;;;;4917974;29;20360;-73
2021/03/23 13:30:26;;;;;;;24.95;18.42;;;9.20;99.90;;;;;;4917614;29;20239;-72
2021/03/23 13:32:55;;;;;;;27.42;16.27;;;9.30;99.90;;;;;;4916823;29;20249;-73
2021/03/23 13:35:22;;;;;;;23.45;16.13;;;9.30;99.90;;;;;;4917033;29;20210;-73
2021/03/23 13:37:48;;;;;;;25.02;15.85;;;9.30;99.90;;;;;;4916907;29;20210;-73
2021/03/23 13:40:24;;;;;;;22.90;16.20;;;9.30;99.90;;;;;;4917162;29;20210;-73
2021/03/23 13:42:51;;;;;;;21.60;15.70;;;9.30;99.90;;;;;;4917097;29;20210;-73
2021/03/23 13:45:20;;;;;;;27.25;16.88;;;9.30;99.90;;;;;;4917120;29;20221;-73
2021/03/23 13:47:49;;;;;;;22.48;16.35;;;9.40;99.90;;;;;;4916560;29;20906;-73
2021/03/23 13:50:18;;;;;;;23.98;15.93;;;9.40;99.90;;;;;;4916198;29;20214;-71
2021/03/23 13:52:46;;;;;;;19.05;14.52;;;9.40;99.90;;;;;;4916543;29;20214;-74
2021/03/23 13:55:18;;;;;;;20.77;15.10;;;9.30;99.90;;;;;;4916903;29;20238;-73
2021/03/23 13:57:44;;;;;;;23.02;15.60;;;9.40;99.90;;;;;;4916963;29;20310;-75
2021/03/23 14:00:13;;;;;;;20.90;14.70;;;9.40;99.90;;;;;;4917425;29;20293;-74
2021/03/23 14:02:39;;;;;;;25.48;16.58;;;9.50;99.90;;;;;;4915907;29;20222;-72
2021/03/23 14:05:06;;;;;;;20.30;15.88;;;9.40;99.90;;;;;;4916265;29;20226;-72
2021/03/23 14:07:37;;;;;;;17.73;14.43;;;9.40;99.90;;;;;;4917227;29;20248;-71
2021/03/23 14:10:05;;;;;;;20.85;15.45;;;9.50;99.90;;;;;;4916383;29;20245;-71
2021/03/23 14:12:31;;;;;;;20.95;15.63;;;9.50;99.90;;;;;;4915960;29;20664;-71
2021/03/23 14:14:58;;;;;;;20.33;15.80;;;9.50;99.90;;;;;;4915336;29;20214;-70
2021/03/23 14:17:27;;;;;;;20.20;14.73;;;9.50;99.90;;;;;;4916500;29;20206;-71
2021/03/23 14:19:54;;;;;;;17.25;14.05;;;9.40;99.90;;;;;;4915745;29;20575;-71
2021/03/23 14:22:25;;;;;;;22.17;14.43;;;9.40;99.90;;;;;;4915805;29;20316;-72
2021/03/23 14:24:53;;;;;;;22.83;15.40;;;9.40;99.90;;;;;;4915243;29;20218;-66
2021/03/23 14:27:19;;;;;;;20.23;15.35;;;9.40;99.90;;;;;;4916207;29;20219;-65
2021/03/23 14:29:46;;;;;;;18.80;14.68;;;9.40;99.90;;;;;;4915366;29;20627;-65
2021/03/23 14:32:12;;;;;;;18.30;14.30;;;9.40;99.90;;;;;;4915953;29;20234;-66
2021/03/23 14:34:38;;;;;;;19.52;15.45;;;9.40;99.90;;;;;;4915945;29;20278;-66
2021/03/23 14:37:08;;;;;;;21.33;15.65;;;9.40;99.90;;;;;;4916196;29;20588;-66
2021/03/23 14:39:37;;;;;;;20.33;15.75;;;9.40;99.90;;;;;;4915806;29;20211;-66
2021/03/23 14:42:07;;;;;;;18.65;15.32;;;9.50;99.90;;;;;;4916026;29;20226;-73
2021/03/23 14:44:33;;;;;;;20.00;15.55;;;9.50;99.90;;;;;;4915659;29;20230;-72
2021/03/23 14:46:59;;;;;;;18.58;15.68;;;9.50;99.90;;;;;;4916491;29;20573;-71
2021/03/23 14:49:26;;;;;;;19.55;14.40;;;9.40;99.90;;;;;;4915669;29;20211;-72
2021/03/23 14:51:52;;;;;;;20.17;15.27;;;9.30;99.90;;;;;;4915916;29;20230;-71
2021/03/23 14:54:21;;;;;;;20.02;13.98;;;9.30;99.90;;;;;;4915381;29;20202;-71
2021/03/23 14:56:50;;;;;;;20.13;14.68;;;9.20;99.90;;;;;;4915790;29;20222;-72
2021/03/23 14:59:20;;;;;;;18.45;15.43;;;9.20;99.90;;;;;;4915545;29;20511;-71
2021/03/23 15:01:47;;;;;;;22.10;16.77;;;9.20;99.90;;;;;;4918049;29;20242;-71
2021/03/23 15:04:13;;;;;;;20.83;15.40;;;9.10;99.90;;;;;;4918327;29;20261;-71
2021/03/23 15:06:40;;;;;;;21.40;15.70;;;9.10;99.90;;;;;;4918499;29;20222;-71
2021/03/23 15:09:14;;;;;;;19.80;15.70;;;9.10;99.90;;;;;;4918614;29;20620;-70
2021/03/23 15:11:43;;;;;;;23.33;16.00;;;9.10;99.90;;;;;;4918411;29;20237;-70
2021/03/23 15:14:10;;;;;;;20.90;15.13;;;9.10;99.90;;;;;;4917988;29;20498;-70
2021/03/23 15:16:38;;;;;;;18.77;15.15;;;9.00;99.90;;;;;;4918917;29;20260;-71
2021/03/23 15:19:05;;;;;;;21.70;14.77;;;9.10;99.90;;;;;;4918032;29;20226;-70
2021/03/23 15:21:33;;;;;;;20.67;15.10;;;9.10;99.90;;;;;;4918736;29;20552;-70
2021/03/23 15:24:00;;;;;;;23.63;15.75;;;9.10;99.90;;;;;;4918603;29;20234;-70
2021/03/23 15:26:29;;;;;;;21.10;14.38;;;9.10;99.90;;;;;;4918381;29;20297;-71
2021/03/23 15:28:57;;;;;;;19.42;14.85;;;9.10;99.90;;;;;;4917739;29;20210;-70
2021/03/23 15:31:23;;;;;;;22.63;14.95;;;9.10;99.90;;;;;;4918376;29;20290;-71
2021/03/23 15:33:51;;;;;;;18.58;14.88;;;9.00;99.90;;;;;;4917702;29;20207;-71
2021/03/23 15:36:21;;;;;;;18.95;14.40;;;9.10;99.90;;;;;;4918387;29;20244;-71
2021/03/23 15:38:47;;;;;;;21.63;15.27;;;9.10;99.90;;;;;;4918237;29;20567;-70
2021/03/23 15:41:14;;;;;;;22.42;15.95;;;9.10;99.90;;;;;;4918076;29;20288;-71
2021/03/23 15:43:40;;;;;;;21.17;15.38;;;9.00;99.90;;;;;;4917498;29;20234;-71
2021/03/23 15:46:06;;;;;;;17.80;14.65;;;9.00;99.90;;;;;;4917685;29;20218;-70
2021/03/23 15:48:33;;;;;;;16.88;14.48;;;9.00;99.90;;;;;;4917460;29;20214;-70
2021/03/23 15:51:00;;;;;;;20.95;15.02;;;9.00;99.90;;;;;;4917996;29;20325;-70
2021/03/23 15:53:32;;;;;;;34.05;24.25;;;9.00;99.90;;;;;;4917668;29;20237;-70
2021/03/23 15:55:59;;;;;;;21.10;15.25;;;9.00;99.90;;;;;;4917901;29;20215;-70
2021/03/23 15:58:26;;;;;;;20.88;15.68;;;9.00;99.90;;;;;;4917443;29;20240;-70
2021/03/23 16:00:53;;;;;;;19.73;16.60;;;9.00;99.90;;;;;;4917602;29;20242;-71
2021/03/23 16:03:19;;;;;;;21.70;15.73;;;8.90;99.90;;;;;;4916890;29;20281;-71
2021/03/23 16:05:48;;;;;;;20.23;15.75;;;8.90;99.90;;;;;;4917692;29;20680;-70
2021/03/23 16:08:19;;;;;;;20.67;15.70;;;8.90;99.90;;;;;;4917186;29;20211;-71
2021/03/23 16:10:45;;;;;;;18.52;14.95;;;8.90;99.90;;;;;;4917401;29;20230;-69
2021/03/23 16:13:12;;;;;;;21.08;16.33;;;8.90;99.90;;;;;;4915721;29;20242;-71
2021/03/23 16:15:38;;;;;;;22.38;14.85;;;8.90;99.90;;;;;;4917441;29;20643;-71
2021/03/23 16:18:07;;;;;;;22.08;15.73;;;8.90;99.90;;;;;;4916800;29;20221;-71
2021/03/23 16:20:34;;;;;;;23.75;16.77;;;8.90;99.90;;;;;;4917289;29;20231;-71
2021/03/23 16:23:02;;;;;;;22.58;17.35;;;8.80;99.90;;;;;;4916825;29;20679;-69
2021/03/23 16:25:31;;;;;;;21.80;15.63;;;8.80;99.90;;;;;;4917172;29;20675;-71
2021/03/23 16:27:58;;;;;;;33.10;22.50;;;8.80;99.90;;;;;;4916684;29;20214;-71
2021/03/23 16:30:27;;;;;;;23.38;17.25;;;8.80;99.90;;;;;;4917410;29;20642;-71
2021/03/23 16:32:54;;;;;;;25.73;16.92;;;8.80;99.90;;;;;;4917246;29;20207;-72
2021/03/23 16:35:26;;;;;;;26.90;18.00;;;8.80;99.90;;;;;;4919457;29;20558;-72
2021/03/23 16:37:52;;;;;;;22.10;16.95;;;8.80;99.90;;;;;;4917331;29;20211;-72
2021/03/23 16:40:19;;;;;;;22.50;16.33;;;8.80;99.90;;;;;;4917802;29;20206;-71
2021/03/23 16:42:46;;;;;;;19.83;15.88;;;8.80;99.90;;;;;;4917503;29;20234;-72
2021/03/23 16:45:23;;;;;;;22.70;17.58;;;8.70;99.90;;;;;;4917016;29;20230;-71
2021/03/23 16:47:49;;;;;;;19.70;15.93;;;8.70;99.90;;;;;;4916631;29;20203;-72
2021/03/23 16:50:18;;;;;;;25.05;18.30;;;8.70;99.90;;;;;;4916900;29;20210;-71
2021/03/23 16:52:45;;;;;;;21.90;16.38;;;8.70;99.90;;;;;;4916609;29;20213;-71
2021/03/23 16:55:25;;;;;;;22.63;17.52;;;8.70;99.90;;;;;;4916597;29;20317;-71
2021/03/23 16:57:53;;;;;;;18.20;13.38;;;8.60;99.90;;;;;;4916608;29;20218;-71
2021/03/23 17:00:21;;;;;;;22.48;17.55;;;8.60;99.90;;;;;;4917479;29;20217;-75
2021/03/23 17:02:47;;;;;;;26.90;15.63;;;8.60;99.90;;;;;;4918363;29;20221;-75
2021/03/23 17:05:15;;;;;;;23.67;16.25;;;8.60;99.90;;;;;;4918171;29;20287;-75
2021/03/23 17:07:42;;;;;;;17.35;13.32;;;8.60;99.90;;;;;;4918634;29;20603;-75
2021/03/23 17:10:10;;;;;;;16.98;13.50;;;8.60;99.90;;;;;;4918406;29;20226;-75
2021/03/23 17:12:36;;;;;;;19.73;13.95;;;8.50;99.90;;;;;;4917807;29;20527;-74
2021/03/23 17:15:05;;;;;;;23.15;14.35;;;8.50;99.90;;;;;;4916159;29;20207;-71
2021/03/23 17:17:32;;;;;;;19.13;13.13;;;8.50;99.90;;;;;;4917477;29;20221;-71
2021/03/23 17:19:58;;;;;;;41.30;28.92;;;8.50;99.90;;;;;;4915630;29;20207;-71
2021/03/23 17:22:26;;;;;;;17.92;14.65;;;8.50;99.90;;;;;;4916519;29;20238;-71
2021/03/23 17:24:52;;;;;;;18.70;15.02;;;8.40;99.90;;;;;;4915731;29;20234;-71
2021/03/23 17:27:20;;;;;;;25.38;15.98;;;8.40;99.90;;;;;;4916203;29;20202;-71
2021/03/23 17:29:46;;;;;;;21.67;15.73;;;8.40;99.90;;;;;;4916182;29;20335;-72
2021/03/23 17:32:13;;;;;;;22.40;15.93;;;8.40;99.90;;;;;;4916208;29;20230;-72
2021/03/23 17:34:39;;;;;;;23.00;15.05;;;8.40;99.90;;;;;;4915922;29;20202;-72
2021/03/23 17:37:07;;;;;;;21.02;15.30;;;8.30;99.90;;;;;;4916563;29;20218;-71
2021/03/23 17:39:33;;;;;;;21.85;15.68;;;8.30;99.90;;;;;;4915920;29;20210;-71
2021/03/23 17:41:59;;;;;;;20.77;13.73;;;8.30;99.90;;;;;;4916437;29;20230;-70
2021/03/23 17:44:26;;;;;;;20.88;14.27;;;8.30;99.90;;;;;;4914935;29;20218;-70
2021/03/23 17:46:52;;;;;;;23.63;14.35;;;8.30;99.90;;;;;;4916573;29;20640;-72
2021/03/23 17:49:19;;;;;;;19.80;13.77;;;8.20;99.90;;;;;;4916201;29;20218;-73
2021/03/23 17:51:45;;;;;;;28.85;19.13;;;8.20;99.90;;;;;;4916615;29;20255;-74
2021/03/23 17:54:11;;;;;;;21.48;14.75;;;8.20;99.90;;;;;;4917304;29;20207;-75
2021/03/23 17:56:38;;;;;;;16.58;12.60;;;8.20;99.90;;;;;;4917969;29;20214;-74
2021/03/23 17:59:05;;;;;;;20.85;13.10;;;8.20;99.90;;;;;;4916399;29;20226;-74
2021/03/23 18:01:31;;;;;;;18.45;13.13;;;8.20;99.90;;;;;;4916273;29;20238;-70
2021/03/23 18:03:58;;;;;;;19.70;15.20;;;8.10;99.90;;;;;;4915538;29;20226;-71
2021/03/23 18:06:25;;;;;;;17.75;13.02;;;8.20;99.90;;;;;;4916197;29;20281;-70